sensor_id;sensor_type;location;lat;lon;timestamp;P1;durP1;ratioP1;P2;durP2;ratioP2
71734;SDS011;59577;52.122;5.406;2024-02-28T00:01:02;17.98;;;8.25;;
71734;SDS011;59577;52.122;5.406;2024-02-28T00:03:28;20.63;;;8.35;;
71734;SDS011;59577;52.122;5.406;2024-02-28T00:05:55;17.13;;;8.15;;
71734;SDS011;59577;52.122;5.406;2024-02-28T00:08:21;22.13;;;8.97;;
71734;SDS011;59577;52.122;5.406;2024-02-28T00:10:48;17.17;;;7.88;;
71734;SDS011;59577;52.122;5.406;2024-02-28T00:13:15;21.58;;;9.18;;
71734;SDS011;59577;52.122;5.406;2024-02-28T00:15:42;23.27;;;9.60;;
71734;SDS011;59577;52.122;5.406;2024-02-28T00:18:09;24.25;;;9.00;;
71734;SDS011;59577;52.122;5.406;2024-02-28T00:20:36;22.00;;;8.63;;
71734;SDS011;59577;52.122;5.406;2024-02-28T00:23:03;17.30;;;8.85;;
71734;SDS011;59577;52.122;5.406;2024-02-28T00:25:29;20.63;;;8.13;;
71734;SDS011;59577;52.122;5.406;2024-02-28T00:27:56;14.93;;;7.22;;
71734;SDS011;59577;52.122;5.406;2024-02-28T00:30:23;20.15;;;9.05;;
71734;SDS011;59577;52.122;5.406;2024-02-28T00:32:49;21.53;;;8.87;;
71734;SDS011;59577;52.122;5.406;2024-02-28T00:35:16;18.35;;;8.30;;
71734;SDS011;59577;52.122;5.406;2024-02-28T00:37:42;18.33;;;7.75;;
71734;SDS011;59577;52.122;5.406;2024-02-28T00:40:09;17.92;;;7.50;;
71734;SDS011;59577;52.122;5.406;2024-02-28T00:42:36;17.00;;;7.63;;
71734;SDS011;59577;52.122;5.406;2024-02-28T00:45:03;16.57;;;7.47;;
71734;SDS011;59577;52.122;5.406;2024-02-28T00:47:29;14.40;;;6.97;;
71734;SDS011;59577;52.122;5.406;2024-02-28T00:49:56;12.68;;;6.10;;
71734;SDS011;59577;52.122;5.406;2024-02-28T00:52:22;17.17;;;7.60;;
71734;SDS011;59577;52.122;5.406;2024-02-28T00:54:51;19.10;;;8.40;;
71734;SDS011;59577;52.122;5.406;2024-02-28T00:57:18;14.57;;;7.00;;
71734;SDS011;59577;52.122;5.406;2024-02-28T00:59:44;19.27;;;7.82;;
71734;SDS011;59577;52.122;5.406;2024-02-28T01:02:11;15.65;;;6.93;;
71734;SDS011;59577;52.122;5.406;2024-02-28T01:04:38;13.73;;;6.57;;
71734;SDS011;59577;52.122;5.406;2024-02-28T01:07:05;14.90;;;6.80;;
71734;SDS011;59577;52.122;5.406;2024-02-28T01:09:32;10.47;;;5.93;;
71734;SDS011;59577;52.122;5.406;2024-02-28T01:11:58;12.98;;;6.53;;
71734;SDS011;59577;52.122;5.406;2024-02-28T01:14:25;17.30;;;7.15;;
71734;SDS011;59577;52.122;5.406;2024-02-28T01:16:51;16.52;;;7.57;;
71734;SDS011;59577;52.122;5.406;2024-02-28T01:19:18;17.70;;;7.93;;
71734;SDS011;59577;52.122;5.406;2024-02-28T01:21:45;15.63;;;6.70;;
71734;SDS011;59577;52.122;5.406;2024-02-28T01:24:11;17.08;;;7.03;;
71734;SDS011;59577;52.122;5.406;2024-02-28T01:26:38;16.15;;;6.45;;
71734;SDS011;59577;52.122;5.406;2024-02-28T01:29:04;15.43;;;6.95;;
71734;SDS011;59577;52.122;5.406;2024-02-28T01:31:31;16.75;;;7.38;;
71734;SDS011;59577;52.122;5.406;2024-02-28T01:33:58;13.73;;;7.33;;
71734;SDS011;59577;52.122;5.406;2024-02-28T01:36:24;18.67;;;8.07;;
71734;SDS011;59577;52.122;5.406;2024-02-28T01:38:52;18.48;;;8.52;;
71734;SDS011;59577;52.122;5.406;2024-02-28T01:41:19;22.63;;;9.90;;
71734;SDS011;59577;52.122;5.406;2024-02-28T01:43:45;46.85;;;10.77;;
71734;SDS011;59577;52.122;5.406;2024-02-28T01:46:30;44.30;;;11.63;;
71734;SDS011;59577;52.122;5.406;2024-02-28T01:48:58;40.20;;;10.18;;
71734;SDS011;59577;52.122;5.406;2024-02-28T01:51:25;31.60;;;11.52;;
71734;SDS011;59577;52.122;5.406;2024-02-28T01:53:55;81.65;;;11.65;;
71734;SDS011;59577;52.122;5.406;2024-02-28T01:56:23;119.93;;;13.18;;
71734;SDS011;59577;52.122;5.406;2024-02-28T01:58:51;44.90;;;10.23;;
71734;SDS011;59577;52.122;5.406;2024-02-28T02:01:18;105.88;;;12.85;;
71734;SDS011;59577;52.122;5.406;2024-02-28T02:03:45;43.63;;;11.18;;
71734;SDS011;59577;52.122;5.406;2024-02-28T02:06:13;28.17;;;10.63;;
71734;SDS011;59577;52.122;5.406;2024-02-28T02:08:39;32.10;;;11.57;;
71734;SDS011;59577;52.122;5.406;2024-02-28T02:11:07;35.87;;;10.47;;
71734;SDS011;59577;52.122;5.406;2024-02-28T02:13:34;39.10;;;11.02;;
71734;SDS011;59577;52.122;5.406;2024-02-28T02:16:01;73.68;;;10.95;;
71734;SDS011;59577;52.122;5.406;2024-02-28T02:18:28;113.10;;;11.60;;
71734;SDS011;59577;52.122;5.406;2024-02-28T02:20:58;109.30;;;11.82;;
71734;SDS011;59577;52.122;5.406;2024-02-28T02:23:31;87.53;;;10.43;;
71734;SDS011;59577;52.122;5.406;2024-02-28T02:25:58;75.90;;;9.55;;
71734;SDS011;59577;52.122;5.406;2024-02-28T02:28:25;62.63;;;10.02;;
71734;SDS011;59577;52.122;5.406;2024-02-28T02:30:51;28.10;;;9.52;;
71734;SDS011;59577;52.122;5.406;2024-02-28T02:33:18;40.08;;;9.93;;
71734;SDS011;59577;52.122;5.406;2024-02-28T02:35:44;27.23;;;9.60;;
71734;SDS011;59577;52.122;5.406;2024-02-28T02:38:11;51.60;;;9.73;;
71734;SDS011;59577;52.122;5.406;2024-02-28T02:40:37;62.03;;;11.45;;
71734;SDS011;59577;52.122;5.406;2024-02-28T02:43:04;33.25;;;10.27;;
71734;SDS011;59577;52.122;5.406;2024-02-28T02:45:30;28.60;;;9.35;;
71734;SDS011;59577;52.122;5.406;2024-02-28T02:47:56;31.53;;;9.13;;
71734;SDS011;59577;52.122;5.406;2024-02-28T02:50:23;47.80;;;10.48;;
71734;SDS011;59577;52.122;5.406;2024-02-28T02:52:50;32.95;;;10.13;;
71734;SDS011;59577;52.122;5.406;2024-02-28T02:55:16;34.17;;;9.60;;
71734;SDS011;59577;52.122;5.406;2024-02-28T02:57:43;25.40;;;9.98;;
71734;SDS011;59577;52.122;5.406;2024-02-28T03:00:10;30.83;;;9.70;;
71734;SDS011;59577;52.122;5.406;2024-02-28T03:02:37;34.22;;;10.45;;
71734;SDS011;59577;52.122;5.406;2024-02-28T03:05:06;24.70;;;8.68;;
71734;SDS011;59577;52.122;5.406;2024-02-28T03:07:33;17.48;;;7.63;;
71734;SDS011;59577;52.122;5.406;2024-02-28T03:10:01;21.75;;;8.88;;
71734;SDS011;59577;52.122;5.406;2024-02-28T03:12:28;15.37;;;7.60;;
71734;SDS011;59577;52.122;5.406;2024-02-28T03:14:55;21.77;;;9.15;;
71734;SDS011;59577;52.122;5.406;2024-02-28T03:17:21;17.55;;;8.30;;
71734;SDS011;59577;52.122;5.406;2024-02-28T03:19:48;20.65;;;9.65;;
71734;SDS011;59577;52.122;5.406;2024-02-28T03:22:14;23.67;;;10.57;;
71734;SDS011;59577;52.122;5.406;2024-02-28T03:24:41;47.67;;;10.07;;
71734;SDS011;59577;52.122;5.406;2024-02-28T03:27:08;41.42;;;10.52;;
71734;SDS011;59577;52.122;5.406;2024-02-28T03:29:34;17.75;;;8.68;;
71734;SDS011;59577;52.122;5.406;2024-02-28T03:32:01;24.20;;;9.48;;
71734;SDS011;59577;52.122;5.406;2024-02-28T03:34:28;18.05;;;8.38;;
71734;SDS011;59577;52.122;5.406;2024-02-28T03:36:54;19.90;;;8.63;;
71734;SDS011;59577;52.122;5.406;2024-02-28T03:39:21;17.88;;;8.45;;
71734;SDS011;59577;52.122;5.406;2024-02-28T03:41:47;16.83;;;8.40;;
71734;SDS011;59577;52.122;5.406;2024-02-28T03:44:14;21.90;;;9.55;;
71734;SDS011;59577;52.122;5.406;2024-02-28T03:46:41;14.82;;;7.90;;
71734;SDS011;59577;52.122;5.406;2024-02-28T03:49:07;19.83;;;8.50;;
71734;SDS011;59577;52.122;5.406;2024-02-28T03:51:40;20.95;;;9.30;;
71734;SDS011;59577;52.122;5.406;2024-02-28T03:54:07;20.48;;;8.82;;
71734;SDS011;59577;52.122;5.406;2024-02-28T03:56:34;15.65;;;7.82;;
71734;SDS011;59577;52.122;5.406;2024-02-28T03:59:02;16.95;;;8.50;;
71734;SDS011;59577;52.122;5.406;2024-02-28T04:01:30;21.33;;;9.67;;
71734;SDS011;59577;52.122;5.406;2024-02-28T04:03:56;17.42;;;8.40;;
71734;SDS011;59577;52.122;5.406;2024-02-28T04:06:24;20.60;;;9.30;;
71734;SDS011;59577;52.122;5.406;2024-02-28T04:08:50;21.88;;;9.07;;
71734;SDS011;59577;52.122;5.406;2024-02-28T04:11:17;19.48;;;9.40;;
71734;SDS011;59577;52.122;5.406;2024-02-28T04:13:44;16.50;;;8.73;;
71734;SDS011;59577;52.122;5.406;2024-02-28T04:16:11;19.33;;;9.18;;
71734;SDS011;59577;52.122;5.406;2024-02-28T04:18:38;21.10;;;9.00;;
71734;SDS011;59577;52.122;5.406;2024-02-28T04:21:04;18.15;;;8.65;;
71734;SDS011;59577;52.122;5.406;2024-02-28T04:23:31;18.48;;;9.27;;
71734;SDS011;59577;52.122;5.406;2024-02-28T04:25:57;20.23;;;9.83;;
71734;SDS011;59577;52.122;5.406;2024-02-28T04:28:24;17.98;;;8.20;;
71734;SDS011;59577;52.122;5.406;2024-02-28T04:30:50;18.00;;;9.13;;
71734;SDS011;59577;52.122;5.406;2024-02-28T04:33:17;18.42;;;8.95;;
71734;SDS011;59577;52.122;5.406;2024-02-28T04:35:43;17.85;;;9.43;;
71734;SDS011;59577;52.122;5.406;2024-02-28T04:38:10;19.77;;;9.00;;
71734;SDS011;59577;52.122;5.406;2024-02-28T04:40:36;16.52;;;8.77;;
71734;SDS011;59577;52.122;5.406;2024-02-28T04:43:03;15.98;;;8.57;;
71734;SDS011;59577;52.122;5.406;2024-02-28T04:45:30;18.75;;;9.02;;
71734;SDS011;59577;52.122;5.406;2024-02-28T04:47:56;18.48;;;8.73;;
71734;SDS011;59577;52.122;5.406;2024-02-28T04:50:24;14.77;;;7.50;;
71734;SDS011;59577;52.122;5.406;2024-02-28T04:52:50;16.20;;;8.35;;
71734;SDS011;59577;52.122;5.406;2024-02-28T04:55:17;16.45;;;8.40;;
71734;SDS011;59577;52.122;5.406;2024-02-28T04:57:44;18.13;;;9.05;;
71734;SDS011;59577;52.122;5.406;2024-02-28T05:00:11;15.20;;;8.30;;
71734;SDS011;59577;52.122;5.406;2024-02-28T05:02:38;13.10;;;7.90;;
71734;SDS011;59577;52.122;5.406;2024-02-28T05:05:05;18.83;;;8.57;;
71734;SDS011;59577;52.122;5.406;2024-02-28T05:07:32;16.35;;;8.30;;
71734;SDS011;59577;52.122;5.406;2024-02-28T05:09:58;16.50;;;8.73;;
71734;SDS011;59577;52.122;5.406;2024-02-28T05:12:25;15.57;;;7.72;;
71734;SDS011;59577;52.122;5.406;2024-02-28T05:14:51;16.87;;;7.70;;
71734;SDS011;59577;52.122;5.406;2024-02-28T05:17:20;15.32;;;8.45;;
71734;SDS011;59577;52.122;5.406;2024-02-28T05:19:47;15.23;;;8.27;;
71734;SDS011;59577;52.122;5.406;2024-02-28T05:22:13;15.82;;;7.72;;
71734;SDS011;59577;52.122;5.406;2024-02-28T05:24:40;16.02;;;8.45;;
71734;SDS011;59577;52.122;5.406;2024-02-28T05:27:10;15.70;;;7.50;;
71734;SDS011;59577;52.122;5.406;2024-02-28T05:29:36;14.00;;;7.07;;
71734;SDS011;59577;52.122;5.406;2024-02-28T05:32:03;15.15;;;8.07;;
71734;SDS011;59577;52.122;5.406;2024-02-28T05:34:30;23.02;;;8.02;;
71734;SDS011;59577;52.122;5.406;2024-02-28T05:36:56;14.02;;;8.30;;
71734;SDS011;59577;52.122;5.406;2024-02-28T05:39:23;14.70;;;8.07;;
71734;SDS011;59577;52.122;5.406;2024-02-28T05:41:50;15.77;;;8.32;;
71734;SDS011;59577;52.122;5.406;2024-02-28T05:44:16;14.18;;;8.35;;
71734;SDS011;59577;52.122;5.406;2024-02-28T05:46:43;13.45;;;8.75;;
71734;SDS011;59577;52.122;5.406;2024-02-28T05:49:10;15.40;;;8.82;;
71734;SDS011;59577;52.122;5.406;2024-02-28T05:51:36;16.80;;;8.60;;
71734;SDS011;59577;52.122;5.406;2024-02-28T05:54:03;15.27;;;9.00;;
71734;SDS011;59577;52.122;5.406;2024-02-28T05:56:30;16.15;;;9.45;;
71734;SDS011;59577;52.122;5.406;2024-02-28T05:58:56;15.75;;;9.32;;
71734;SDS011;59577;52.122;5.406;2024-02-28T06:01:22;19.95;;;9.52;;
71734;SDS011;59577;52.122;5.406;2024-02-28T06:03:49;17.27;;;9.47;;
71734;SDS011;59577;52.122;5.406;2024-02-28T06:06:17;18.98;;;9.57;;
71734;SDS011;59577;52.122;5.406;2024-02-28T06:08:44;17.55;;;10.10;;
71734;SDS011;59577;52.122;5.406;2024-02-28T06:11:11;18.17;;;11.27;;
71734;SDS011;59577;52.122;5.406;2024-02-28T06:13:40;22.17;;;10.55;;
71734;SDS011;59577;52.122;5.406;2024-02-28T06:16:07;15.77;;;9.30;;
71734;SDS011;59577;52.122;5.406;2024-02-28T06:18:34;17.00;;;9.00;;
71734;SDS011;59577;52.122;5.406;2024-02-28T06:21:00;13.90;;;8.98;;
71734;SDS011;59577;52.122;5.406;2024-02-28T06:23:27;16.00;;;9.30;;
71734;SDS011;59577;52.122;5.406;2024-02-28T06:25:56;16.30;;;10.30;;
71734;SDS011;59577;52.122;5.406;2024-02-28T06:28:23;16.57;;;9.83;;
71734;SDS011;59577;52.122;5.406;2024-02-28T06:30:49;17.17;;;9.77;;
71734;SDS011;59577;52.122;5.406;2024-02-28T06:33:16;18.42;;;10.07;;
71734;SDS011;59577;52.122;5.406;2024-02-28T06:35:43;23.13;;;11.75;;
71734;SDS011;59577;52.122;5.406;2024-02-28T06:38:09;18.17;;;10.00;;
71734;SDS011;59577;52.122;5.406;2024-02-28T06:40:36;17.13;;;10.47;;
71734;SDS011;59577;52.122;5.406;2024-02-28T06:43:02;20.08;;;10.50;;
71734;SDS011;59577;52.122;5.406;2024-02-28T06:45:29;24.33;;;10.10;;
71734;SDS011;59577;52.122;5.406;2024-02-28T06:47:56;18.05;;;9.98;;
71734;SDS011;59577;52.122;5.406;2024-02-28T06:50:23;15.73;;;10.45;;
71734;SDS011;59577;52.122;5.406;2024-02-28T06:52:50;16.63;;;10.43;;
71734;SDS011;59577;52.122;5.406;2024-02-28T06:55:18;17.27;;;10.50;;
71734;SDS011;59577;52.122;5.406;2024-02-28T06:57:44;16.13;;;10.35;;
71734;SDS011;59577;52.122;5.406;2024-02-28T07:00:11;17.33;;;10.57;;
71734;SDS011;59577;52.122;5.406;2024-02-28T07:02:39;14.65;;;9.90;;
71734;SDS011;59577;52.122;5.406;2024-02-28T07:05:05;18.57;;;10.10;;
71734;SDS011;59577;52.122;5.406;2024-02-28T07:07:33;13.30;;;9.50;;
71734;SDS011;59577;52.122;5.406;2024-02-28T07:10:01;17.88;;;9.38;;
71734;SDS011;59577;52.122;5.406;2024-02-28T07:12:29;18.17;;;10.43;;
71734;SDS011;59577;52.122;5.406;2024-02-28T07:14:55;16.35;;;10.15;;
71734;SDS011;59577;52.122;5.406;2024-02-28T07:17:22;14.70;;;9.63;;
71734;SDS011;59577;52.122;5.406;2024-02-28T07:19:49;13.48;;;9.93;;
71734;SDS011;59577;52.122;5.406;2024-02-28T07:22:16;19.48;;;11.10;;
71734;SDS011;59577;52.122;5.406;2024-02-28T07:24:44;19.02;;;11.05;;
71734;SDS011;59577;52.122;5.406;2024-02-28T07:27:10;18.70;;;9.95;;
71734;SDS011;59577;52.122;5.406;2024-02-28T07:29:37;16.40;;;10.70;;
71734;SDS011;59577;52.122;5.406;2024-02-28T07:32:04;12.63;;;9.15;;
71734;SDS011;59577;52.122;5.406;2024-02-28T07:34:31;15.70;;;10.20;;
71734;SDS011;59577;52.122;5.406;2024-02-28T07:36:57;18.05;;;10.07;;
71734;SDS011;59577;52.122;5.406;2024-02-28T07:39:24;13.63;;;9.73;;
71734;SDS011;59577;52.122;5.406;2024-02-28T07:41:51;14.10;;;9.70;;
71734;SDS011;59577;52.122;5.406;2024-02-28T07:44:21;16.17;;;10.18;;
71734;SDS011;59577;52.122;5.406;2024-02-28T07:46:48;17.52;;;10.60;;
71734;SDS011;59577;52.122;5.406;2024-02-28T07:49:16;14.88;;;10.32;;
71734;SDS011;59577;52.122;5.406;2024-02-28T07:51:43;16.20;;;9.88;;
71734;SDS011;59577;52.122;5.406;2024-02-28T07:54:09;16.03;;;10.67;;
71734;SDS011;59577;52.122;5.406;2024-02-28T07:56:36;21.42;;;10.30;;
71734;SDS011;59577;52.122;5.406;2024-02-28T07:59:02;15.93;;;10.30;;
71734;SDS011;59577;52.122;5.406;2024-02-28T08:01:29;20.35;;;10.13;;
71734;SDS011;59577;52.122;5.406;2024-02-28T08:03:57;17.05;;;10.30;;
71734;SDS011;59577;52.122;5.406;2024-02-28T08:06:23;14.63;;;10.20;;
71734;SDS011;59577;52.122;5.406;2024-02-28T08:08:50;17.95;;;10.55;;
71734;SDS011;59577;52.122;5.406;2024-02-28T08:11:16;19.17;;;10.93;;
71734;SDS011;59577;52.122;5.406;2024-02-28T08:13:45;17.58;;;9.45;;
71734;SDS011;59577;52.122;5.406;2024-02-28T08:16:11;17.55;;;9.63;;
71734;SDS011;59577;52.122;5.406;2024-02-28T08:18:39;23.53;;;10.57;;
71734;SDS011;59577;52.122;5.406;2024-02-28T08:21:05;13.23;;;9.57;;
71734;SDS011;59577;52.122;5.406;2024-02-28T08:23:32;14.30;;;9.90;;
71734;SDS011;59577;52.122;5.406;2024-02-28T08:25:59;18.85;;;10.63;;
71734;SDS011;59577;52.122;5.406;2024-02-28T08:28:26;19.70;;;10.38;;
71734;SDS011;59577;52.122;5.406;2024-02-28T08:30:52;14.00;;;9.90;;
71734;SDS011;59577;52.122;5.406;2024-02-28T08:33:19;18.13;;;10.15;;
71734;SDS011;59577;52.122;5.406;2024-02-28T08:35:50;15.40;;;10.65;;
71734;SDS011;59577;52.122;5.406;2024-02-28T08:38:18;17.00;;;10.00;;
71734;SDS011;59577;52.122;5.406;2024-02-28T08:40:44;18.45;;;10.25;;
71734;SDS011;59577;52.122;5.406;2024-02-28T08:43:11;17.47;;;10.50;;
71734;SDS011;59577;52.122;5.406;2024-02-28T08:45:38;12.05;;;9.95;;
71734;SDS011;59577;52.122;5.406;2024-02-28T08:48:05;12.55;;;9.90;;
71734;SDS011;59577;52.122;5.406;2024-02-28T08:50:33;15.38;;;10.25;;
71734;SDS011;59577;52.122;5.406;2024-02-28T08:52:59;22.55;;;10.55;;
71734;SDS011;59577;52.122;5.406;2024-02-28T08:55:27;16.90;;;11.10;;
71734;SDS011;59577;52.122;5.406;2024-02-28T08:57:54;18.77;;;10.47;;
71734;SDS011;59577;52.122;5.406;2024-02-28T09:00:21;18.38;;;11.27;;
71734;SDS011;59577;52.122;5.406;2024-02-28T09:02:48;19.17;;;11.45;;
71734;SDS011;59577;52.122;5.406;2024-02-28T09:05:14;18.42;;;12.32;;
71734;SDS011;59577;52.122;5.406;2024-02-28T09:07:41;19.13;;;11.77;;
71734;SDS011;59577;52.122;5.406;2024-02-28T09:10:07;19.95;;;11.32;;
71734;SDS011;59577;52.122;5.406;2024-02-28T09:12:34;17.23;;;11.63;;
71734;SDS011;59577;52.122;5.406;2024-02-28T09:15:01;18.00;;;12.15;;
71734;SDS011;59577;52.122;5.406;2024-02-28T09:17:27;22.75;;;12.65;;
71734;SDS011;59577;52.122;5.406;2024-02-28T09:19:54;17.10;;;11.63;;
71734;SDS011;59577;52.122;5.406;2024-02-28T09:22:20;21.63;;;12.25;;
71734;SDS011;59577;52.122;5.406;2024-02-28T09:24:47;24.73;;;14.90;;
71734;SDS011;59577;52.122;5.406;2024-02-28T09:27:15;24.23;;;14.30;;
71734;SDS011;59577;52.122;5.406;2024-02-28T09:29:42;19.98;;;13.00;;
71734;SDS011;59577;52.122;5.406;2024-02-28T09:32:08;20.27;;;13.40;;
71734;SDS011;59577;52.122;5.406;2024-02-28T09:34:35;27.48;;;14.10;;
71734;SDS011;59577;52.122;5.406;2024-02-28T09:37:03;22.05;;;12.45;;
71734;SDS011;59577;52.122;5.406;2024-02-28T09:39:30;20.23;;;13.32;;
71734;SDS011;59577;52.122;5.406;2024-02-28T09:41:57;21.10;;;13.48;;
71734;SDS011;59577;52.122;5.406;2024-02-28T09:44:24;20.23;;;13.17;;
71734;SDS011;59577;52.122;5.406;2024-02-28T09:46:51;32.38;;;18.67;;
71734;SDS011;59577;52.122;5.406;2024-02-28T09:49:19;25.17;;;15.75;;
71734;SDS011;59577;52.122;5.406;2024-02-28T09:51:47;21.63;;;13.13;;
71734;SDS011;59577;52.122;5.406;2024-02-28T09:54:16;19.33;;;12.32;;
71734;SDS011;59577;52.122;5.406;2024-02-28T09:56:43;20.50;;;12.67;;
71734;SDS011;59577;52.122;5.406;2024-02-28T09:59:10;19.70;;;12.07;;
71734;SDS011;59577;52.122;5.406;2024-02-28T10:01:42;21.98;;;11.63;;
71734;SDS011;59577;52.122;5.406;2024-02-28T10:04:13;20.92;;;11.70;;
71734;SDS011;59577;52.122;5.406;2024-02-28T10:06:40;17.55;;;11.90;;
71734;SDS011;59577;52.122;5.406;2024-02-28T10:09:07;16.70;;;11.67;;
71734;SDS011;59577;52.122;5.406;2024-02-28T10:11:34;18.15;;;11.45;;
71734;SDS011;59577;52.122;5.406;2024-02-28T10:14:02;19.38;;;12.43;;
71734;SDS011;59577;52.122;5.406;2024-02-28T10:16:29;16.88;;;11.52;;
71734;SDS011;59577;52.122;5.406;2024-02-28T10:18:55;17.95;;;12.55;;
71734;SDS011;59577;52.122;5.406;2024-02-28T10:21:22;19.57;;;12.20;;
71734;SDS011;59577;52.122;5.406;2024-02-28T10:23:49;19.88;;;11.95;;
71734;SDS011;59577;52.122;5.406;2024-02-28T10:26:16;19.88;;;11.68;;
71734;SDS011;59577;52.122;5.406;2024-02-28T10:28:42;16.85;;;11.40;;
71734;SDS011;59577;52.122;5.406;2024-02-28T10:31:12;17.88;;;11.32;;
71734;SDS011;59577;52.122;5.406;2024-02-28T10:33:41;16.97;;;12.10;;
71734;SDS011;59577;52.122;5.406;2024-02-28T10:36:08;16.83;;;11.32;;
71734;SDS011;59577;52.122;5.406;2024-02-28T10:38:35;17.92;;;11.35;;
71734;SDS011;59577;52.122;5.406;2024-02-28T10:41:05;17.58;;;10.98;;
71734;SDS011;59577;52.122;5.406;2024-02-28T10:43:35;19.67;;;11.02;;
71734;SDS011;59577;52.122;5.406;2024-02-28T10:46:01;18.90;;;11.07;;
71734;SDS011;59577;52.122;5.406;2024-02-28T10:48:31;18.65;;;11.40;;
71734;SDS011;59577;52.122;5.406;2024-02-28T10:50:57;18.25;;;12.05;;
71734;SDS011;59577;52.122;5.406;2024-02-28T10:53:45;17.30;;;11.68;;
71734;SDS011;59577;52.122;5.406;2024-02-28T10:56:17;19.88;;;13.07;;
71734;SDS011;59577;52.122;5.406;2024-02-28T10:58:51;18.43;;;12.87;;
71734;SDS011;59577;52.122;5.406;2024-02-28T11:01:21;20.05;;;13.45;;
71734;SDS011;59577;52.122;5.406;2024-02-28T11:03:48;21.15;;;13.77;;
71734;SDS011;59577;52.122;5.406;2024-02-28T11:06:20;23.52;;;13.85;;
71734;SDS011;59577;52.122;5.406;2024-02-28T11:08:48;22.15;;;13.07;;
71734;SDS011;59577;52.122;5.406;2024-02-28T11:11:19;18.43;;;12.53;;
71734;SDS011;59577;52.122;5.406;2024-02-28T11:13:55;20.20;;;12.68;;
71734;SDS011;59577;52.122;5.406;2024-02-28T11:16:30;21.17;;;13.88;;
71734;SDS011;59577;52.122;5.406;2024-02-28T11:19:00;20.55;;;13.07;;
71734;SDS011;59577;52.122;5.406;2024-02-28T11:21:29;20.25;;;13.23;;
71734;SDS011;59577;52.122;5.406;2024-02-28T11:23:59;19.27;;;12.93;;
71734;SDS011;59577;52.122;5.406;2024-02-28T11:26:27;22.40;;;12.48;;
71734;SDS011;59577;52.122;5.406;2024-02-28T11:28:54;22.02;;;12.50;;
71734;SDS011;59577;52.122;5.406;2024-02-28T11:31:21;24.33;;;12.98;;
71734;SDS011;59577;52.122;5.406;2024-02-28T11:33:48;22.80;;;12.18;;
71734;SDS011;59577;52.122;5.406;2024-02-28T11:36:14;19.13;;;12.63;;
71734;SDS011;59577;52.122;5.406;2024-02-28T11:38:41;20.65;;;12.23;;
71734;SDS011;59577;52.122;5.406;2024-02-28T11:41:08;21.38;;;12.52;;
71734;SDS011;59577;52.122;5.406;2024-02-28T11:43:34;19.23;;;11.88;;
71734;SDS011;59577;52.122;5.406;2024-02-28T11:46:17;18.05;;;11.07;;
71734;SDS011;59577;52.122;5.406;2024-02-28T11:48:45;19.73;;;11.50;;
71734;SDS011;59577;52.122;5.406;2024-02-28T11:51:12;18.50;;;11.18;;
71734;SDS011;59577;52.122;5.406;2024-02-28T11:53:38;22.65;;;12.05;;
71734;SDS011;59577;52.122;5.406;2024-02-28T11:56:05;22.08;;;12.27;;
71734;SDS011;59577;52.122;5.406;2024-02-28T11:58:32;21.85;;;11.82;;
71734;SDS011;59577;52.122;5.406;2024-02-28T12:00:58;24.33;;;12.63;;
71734;SDS011;59577;52.122;5.406;2024-02-28T12:03:25;21.75;;;12.00;;
71734;SDS011;59577;52.122;5.406;2024-02-28T12:05:55;18.38;;;12.25;;
71734;SDS011;59577;52.122;5.406;2024-02-28T12:08:22;21.15;;;12.20;;
71734;SDS011;59577;52.122;5.406;2024-02-28T12:10:51;23.48;;;13.75;;
71734;SDS011;59577;52.122;5.406;2024-02-28T12:13:18;23.57;;;13.63;;
71734;SDS011;59577;52.122;5.406;2024-02-28T12:15:46;20.70;;;12.65;;
71734;SDS011;59577;52.122;5.406;2024-02-28T12:18:15;23.08;;;12.77;;
71734;SDS011;59577;52.122;5.406;2024-02-28T12:20:42;25.70;;;12.90;;
71734;SDS011;59577;52.122;5.406;2024-02-28T12:23:08;23.05;;;12.30;;
71734;SDS011;59577;52.122;5.406;2024-02-28T12:25:35;23.77;;;12.13;;
71734;SDS011;59577;52.122;5.406;2024-02-28T12:28:03;24.48;;;11.50;;
71734;SDS011;59577;52.122;5.406;2024-02-28T12:30:38;20.73;;;10.50;;
71734;SDS011;59577;52.122;5.406;2024-02-28T12:33:07;18.45;;;9.88;;
71734;SDS011;59577;52.122;5.406;2024-02-28T12:35:35;18.70;;;10.80;;
71734;SDS011;59577;52.122;5.406;2024-02-28T12:38:01;18.93;;;10.93;;
71734;SDS011;59577;52.122;5.406;2024-02-28T12:40:28;15.98;;;10.68;;
71734;SDS011;59577;52.122;5.406;2024-02-28T12:42:54;16.48;;;10.80;;
71734;SDS011;59577;52.122;5.406;2024-02-28T12:45:21;22.92;;;11.82;;
71734;SDS011;59577;52.122;5.406;2024-02-28T12:47:51;18.80;;;11.13;;
71734;SDS011;59577;52.122;5.406;2024-02-28T12:50:19;16.83;;;10.67;;
71734;SDS011;59577;52.122;5.406;2024-02-28T12:52:48;22.27;;;11.50;;
71734;SDS011;59577;52.122;5.406;2024-02-28T12:55:19;16.17;;;10.50;;
71734;SDS011;59577;52.122;5.406;2024-02-28T12:57:47;19.73;;;11.27;;
71734;SDS011;59577;52.122;5.406;2024-02-28T13:00:15;18.65;;;11.07;;
71734;SDS011;59577;52.122;5.406;2024-02-28T13:02:42;20.00;;;11.40;;
71734;SDS011;59577;52.122;5.406;2024-02-28T13:05:09;24.45;;;10.73;;
71734;SDS011;59577;52.122;5.406;2024-02-28T13:07:37;18.42;;;10.77;;
71734;SDS011;59577;52.122;5.406;2024-02-28T13:10:03;23.48;;;11.70;;
71734;SDS011;59577;52.122;5.406;2024-02-28T13:12:31;18.98;;;10.88;;
71734;SDS011;59577;52.122;5.406;2024-02-28T13:14:58;23.73;;;11.57;;
71734;SDS011;59577;52.122;5.406;2024-02-28T13:17:25;20.55;;;10.63;;
71734;SDS011;59577;52.122;5.406;2024-02-28T13:19:52;15.88;;;10.75;;
71734;SDS011;59577;52.122;5.406;2024-02-28T13:22:18;23.38;;;12.60;;
71734;SDS011;59577;52.122;5.406;2024-02-28T13:24:45;20.50;;;11.57;;
71734;SDS011;59577;52.122;5.406;2024-02-28T13:27:11;20.20;;;11.23;;
71734;SDS011;59577;52.122;5.406;2024-02-28T13:29:37;16.75;;;10.10;;
71734;SDS011;59577;52.122;5.406;2024-02-28T13:32:04;17.23;;;10.50;;
71734;SDS011;59577;52.122;5.406;2024-02-28T13:34:31;15.57;;;10.73;;
71734;SDS011;59577;52.122;5.406;2024-02-28T13:36:58;18.90;;;10.65;;
71734;SDS011;59577;52.122;5.406;2024-02-28T13:39:24;17.80;;;11.27;;
71734;SDS011;59577;52.122;5.406;2024-02-28T13:41:52;18.30;;;11.32;;
71734;SDS011;59577;52.122;5.406;2024-02-28T13:44:19;16.48;;;11.15;;
71734;SDS011;59577;52.122;5.406;2024-02-28T13:46:45;20.60;;;11.90;;
71734;SDS011;59577;52.122;5.406;2024-02-28T13:49:12;20.73;;;11.57;;
71734;SDS011;59577;52.122;5.406;2024-02-28T13:51:41;16.33;;;10.87;;
71734;SDS011;59577;52.122;5.406;2024-02-28T13:54:08;17.30;;;10.60;;
71734;SDS011;59577;52.122;5.406;2024-02-28T13:56:35;17.98;;;10.98;;
71734;SDS011;59577;52.122;5.406;2024-02-28T13:59:01;19.33;;;11.35;;
71734;SDS011;59577;52.122;5.406;2024-02-28T14:01:28;19.35;;;10.82;;
71734;SDS011;59577;52.122;5.406;2024-02-28T14:03:55;15.80;;;10.50;;
71734;SDS011;59577;52.122;5.406;2024-02-28T14:06:21;15.77;;;10.82;;
71734;SDS011;59577;52.122;5.406;2024-02-28T14:08:48;17.70;;;10.95;;
71734;SDS011;59577;52.122;5.406;2024-02-28T14:11:15;17.95;;;11.48;;
71734;SDS011;59577;52.122;5.406;2024-02-28T14:13:43;18.77;;;11.60;;
71734;SDS011;59577;52.122;5.406;2024-02-28T14:16:09;16.50;;;11.37;;
71734;SDS011;59577;52.122;5.406;2024-02-28T14:18:36;17.35;;;10.75;;
71734;SDS011;59577;52.122;5.406;2024-02-28T14:21:02;20.42;;;11.23;;
71734;SDS011;59577;52.122;5.406;2024-02-28T14:23:33;16.85;;;10.63;;
71734;SDS011;59577;52.122;5.406;2024-02-28T14:25:59;20.63;;;11.82;;